sensor_id;sensor_type;location;lat;lon;timestamp;pressure;altitude;pressure_sealevel;temperature;humidity
13414;BME280;6778;48.136;11.386;2023-03-12T00:00:59;94898.75;;;1.07;62.88
13414;BME280;6778;48.136;11.386;2023-03-12T00:03:29;94905.88;;;1.36;62.06
13414;BME280;6778;48.136;11.386;2023-03-12T00:06:01;94898.63;;;1.32;61.75
13414;BME280;6778;48.136;11.386;2023-03-12T00:08:40;94897.31;;;1.05;62.77
13414;BME280;6778;48.136;11.386;2023-03-12T00:11:12;94896.28;;;0.83;63.65
13414;BME280;6778;48.136;11.386;2023-03-12T00:13:43;94900.78;;;0.89;64.02
13414;BME280;6778;48.136;11.386;2023-03-12T00:16:14;94896.56;;;0.96;63.33
13414;BME280;6778;48.136;11.386;2023-03-12T00:18:47;94894.88;;;1.12;62.66
13414;BME280;6778;48.136;11.386;2023-03-12T00:21:18;94899.72;;;1.06;62.95
13414;BME280;6778;48.136;11.386;2023-03-12T00:23:52;94899.97;;;0.80;64.25
13414;BME280;6778;48.136;11.386;2023-03-12T00:26:22;94896.78;;;0.78;64.04
13414;BME280;6778;48.136;11.386;2023-03-12T00:28:52;94893.06;;;0.81;63.53
13414;BME280;6778;48.136;11.386;2023-03-12T00:31:24;94899.41;;;1.01;62.75
13414;BME280;6778;48.136;11.386;2023-03-12T00:33:58;94899.69;;;0.75;63.61
13414;BME280;6778;48.136;11.386;2023-03-12T00:36:31;94898.56;;;0.78;63.85
13414;BME280;6778;48.136;11.386;2023-03-12T00:39:04;94908.38;;;0.74;64.00
13414;BME280;6778;48.136;11.386;2023-03-12T00:41:34;94907.13;;;0.70;64.28
13414;BME280;6778;48.136;11.386;2023-03-12T00:44:04;94910.84;;;0.60;64.90
13414;BME280;6778;48.136;11.386;2023-03-12T00:46:35;94904.38;;;0.72;64.30
13414;BME280;6778;48.136;11.386;2023-03-12T00:49:05;94906.19;;;0.47;65.15
13414;BME280;6778;48.136;11.386;2023-03-12T00:51:35;94905.53;;;0.69;64.53
13414;BME280;6778;48.136;11.386;2023-03-12T00:54:07;94907.25;;;0.77;64.53
13414;BME280;6778;48.136;11.386;2023-03-12T00:56:38;94902.38;;;0.90;64.12
13414;BME280;6778;48.136;11.386;2023-03-12T00:59:08;94897.53;;;0.87;64.57
13414;BME280;6778;48.136;11.386;2023-03-12T01:01:37;94901.41;;;0.91;64.81
13414;BME280;6778;48.136;11.386;2023-03-12T01:04:08;94899.81;;;0.90;64.49
13414;BME280;6778;48.136;11.386;2023-03-12T01:06:40;94899.41;;;1.09;64.33
13414;BME280;6778;48.136;11.386;2023-03-12T01:09:13;94898.88;;;1.45;63.05
13414;BME280;6778;48.136;11.386;2023-03-12T01:11:43;94897.72;;;1.25;63.63
13414;BME280;6778;48.136;11.386;2023-03-12T01:14:13;94895.44;;;1.30;61.82
13414;BME280;6778;48.136;11.386;2023-03-12T01:16:43;94898.94;;;1.60;61.31
13414;BME280;6778;48.136;11.386;2023-03-12T01:19:13;94903.25;;;1.45;61.87
13414;BME280;6778;48.136;11.386;2023-03-12T01:21:43;94897.56;;;1.72;62.12
13414;BME280;6778;48.136;11.386;2023-03-12T01:24:15;94906.16;;;1.87;61.70
13414;BME280;6778;48.136;11.386;2023-03-12T01:26:45;94913.84;;;1.96;61.58
13414;BME280;6778;48.136;11.386;2023-03-12T01:29:15;94909.16;;;1.99;61.02
13414;BME280;6778;48.136;11.386;2023-03-12T01:31:45;94915.53;;;2.11;60.67
13414;BME280;6778;48.136;11.386;2023-03-12T01:34:15;94920.41;;;2.06;60.72
13414;BME280;6778;48.136;11.386;2023-03-12T01:36:45;94920.56;;;2.05;61.50
13414;BME280;6778;48.136;11.386;2023-03-12T01:39:19;94915.59;;;2.03;61.89
13414;BME280;6778;48.136;11.386;2023-03-12T01:41:49;94911.91;;;1.75;61.70
13414;BME280;6778;48.136;11.386;2023-03-12T01:44:19;94915.59;;;1.80;61.81
13414;BME280;6778;48.136;11.386;2023-03-12T01:46:49;94916.28;;;1.97;60.81
13414;BME280;6778;48.136;11.386;2023-03-12T01:49:27;94909.53;;;1.42;62.20
13414;BME280;6778;48.136;11.386;2023-03-12T01:52:04;94907.66;;;1.82;61.74
13414;BME280;6778;48.136;11.386;2023-03-12T01:54:48;94904.75;;;1.85;61.56
13414;BME280;6778;48.136;11.386;2023-03-12T01:57:26;94898.00;;;1.30;62.84
13414;BME280;6778;48.136;11.386;2023-03-12T02:00:07;94896.91;;;1.78;62.50
13414;BME280;6778;48.136;11.386;2023-03-12T02:02:43;94903.31;;;1.59;62.76
13414;BME280;6778;48.136;11.386;2023-03-12T02:05:26;94901.59;;;1.75;62.42
13414;BME280;6778;48.136;11.386;2023-03-12T02:07:58;94910.53;;;1.87;61.85
13414;BME280;6778;48.136;11.386;2023-03-12T02:10:30;94914.91;;;1.86;62.12
13414;BME280;6778;48.136;11.386;2023-03-12T02:13:01;94921.84;;;1.86;61.91
13414;BME280;6778;48.136;11.386;2023-03-12T02:15:34;94924.25;;;1.87;61.92
13414;BME280;6778;48.136;11.386;2023-03-12T02:18:12;94923.03;;;1.75;62.87
13414;BME280;6778;48.136;11.386;2023-03-12T02:20:49;94922.25;;;1.98;62.09
13414;BME280;6778;48.136;11.386;2023-03-12T02:23:30;94924.56;;;1.70;62.26
13414;BME280;6778;48.136;11.386;2023-03-12T02:26:06;94926.16;;;1.71;62.79
13414;BME280;6778;48.136;11.386;2023-03-12T02:28:38;94928.06;;;1.77;62.56
13414;BME280;6778;48.136;11.386;2023-03-12T02:31:16;94928.94;;;1.61;63.01
13414;BME280;6778;48.136;11.386;2023-03-12T02:33:48;94927.38;;;1.52;64.09
13414;BME280;6778;48.136;11.386;2023-03-12T02:36:20;94925.69;;;1.67;63.23
13414;BME280;6778;48.136;11.386;2023-03-12T02:38:53;94927.16;;;1.61;63.37
13414;BME280;6778;48.136;11.386;2023-03-12T02:41:29;94926.22;;;1.31;64.72
13414;BME280;6778;48.136;11.386;2023-03-12T02:44:03;94924.13;;;1.58;64.17
13414;BME280;6778;48.136;11.386;2023-03-12T02:46:40;94933.06;;;1.47;64.79
13414;BME280;6778;48.136;11.386;2023-03-12T02:49:12;94932.97;;;1.63;64.60
13414;BME280;6778;48.136;11.386;2023-03-12T02:51:44;94931.88;;;1.81;63.87
13414;BME280;6778;48.136;11.386;2023-03-12T02:54:16;94941.41;;;1.80;64.00
13414;BME280;6778;48.136;11.386;2023-03-12T02:56:50;94941.72;;;1.54;65.14
13414;BME280;6778;48.136;11.386;2023-03-12T02:59:22;94948.44;;;1.32;65.87
13414;BME280;6778;48.136;11.386;2023-03-12T03:01:58;94940.19;;;1.68;65.66
13414;BME280;6778;48.136;11.386;2023-03-12T03:04:30;94949.75;;;1.59;65.44
13414;BME280;6778;48.136;11.386;2023-03-12T03:07:01;94947.47;;;1.64;64.99
13414;BME280;6778;48.136;11.386;2023-03-12T03:09:31;94942.44;;;1.71;65.40
13414;BME280;6778;48.136;11.386;2023-03-12T03:12:04;94931.75;;;1.74;65.36
13414;BME280;6778;48.136;11.386;2023-03-12T03:14:36;94940.47;;;1.73;65.63
13414;BME280;6778;48.136;11.386;2023-03-12T03:17:06;94954.38;;;1.72;65.90
13414;BME280;6778;48.136;11.386;2023-03-12T03:19:36;94951.50;;;1.67;66.44
13414;BME280;6778;48.136;11.386;2023-03-12T03:22:06;94938.81;;;1.80;66.25
13414;BME280;6778;48.136;11.386;2023-03-12T03:24:36;94937.09;;;1.96;66.11
13414;BME280;6778;48.136;11.386;2023-03-12T03:27:09;94942.44;;;1.94;66.48
13414;BME280;6778;48.136;11.386;2023-03-12T03:29:40;94939.63;;;1.81;66.58
13414;BME280;6778;48.136;11.386;2023-03-12T03:32:10;94944.09;;;1.87;67.10
13414;BME280;6778;48.136;11.386;2023-03-12T03:34:41;94939.75;;;1.87;66.99
13414;BME280;6778;48.136;11.386;2023-03-12T03:37:18;94955.53;;;1.92;67.17
13414;BME280;6778;48.136;11.386;2023-03-12T03:39:49;94948.75;;;1.91;67.39
13414;BME280;6778;48.136;11.386;2023-03-12T03:42:23;94953.50;;;2.03;67.08
13414;BME280;6778;48.136;11.386;2023-03-12T03:44:56;94952.38;;;2.05;67.54
13414;BME280;6778;48.136;11.386;2023-03-12T03:47:26;94955.03;;;1.97;67.54
13414;BME280;6778;48.136;11.386;2023-03-12T03:49:58;94955.97;;;1.96;67.86
13414;BME280;6778;48.136;11.386;2023-03-12T03:52:28;94955.16;;;1.96;68.09
13414;BME280;6778;48.136;11.386;2023-03-12T03:55:01;94963.91;;;1.95;68.27
13414;BME280;6778;48.136;11.386;2023-03-12T03:57:34;94965.97;;;1.99;68.35
13414;BME280;6778;48.136;11.386;2023-03-12T04:00:07;94965.00;;;2.00;68.39
13414;BME280;6778;48.136;11.386;2023-03-12T04:02:43;94964.47;;;2.05;68.80
13414;BME280;6778;48.136;11.386;2023-03-12T04:05:15;94967.06;;;2.05;69.01
13414;BME280;6778;48.136;11.386;2023-03-12T04:07:50;94970.44;;;2.05;68.99
13414;BME280;6778;48.136;11.386;2023-03-12T04:10:24;94964.81;;;2.02;69.39
13414;BME280;6778;48.136;11.386;2023-03-12T04:12:56;94967.44;;;2.16;69.14
13414;BME280;6778;48.136;11.386;2023-03-12T04:15:26;94972.97;;;2.13;69.55
13414;BME280;6778;48.136;11.386;2023-03-12T04:17:57;94969.47;;;2.06;69.95
13414;BME280;6778;48.136;11.386;2023-03-12T04:20:28;94981.69;;;2.12;70.01
13414;BME280;6778;48.136;11.386;2023-03-12T04:22:58;94976.34;;;2.14;70.22
13414;BME280;6778;48.136;11.386;2023-03-12T04:25:28;94978.94;;;2.14;70.58
13414;BME280;6778;48.136;11.386;2023-03-12T04:28:02;94974.13;;;2.11;70.85
13414;BME280;6778;48.136;11.386;2023-03-12T04:30:33;94977.38;;;2.28;70.50
13414;BME280;6778;48.136;11.386;2023-03-12T04:33:07;94987.72;;;2.28;70.92
13414;BME280;6778;48.136;11.386;2023-03-12T04:35:37;94988.22;;;2.23;71.03
13414;BME280;6778;48.136;11.386;2023-03-12T04:38:08;94974.78;;;2.28;71.40
13414;BME280;6778;48.136;11.386;2023-03-12T04:40:38;94985.06;;;2.36;71.52
13414;BME280;6778;48.136;11.386;2023-03-12T04:43:11;94976.41;;;2.29;71.52
13414;BME280;6778;48.136;11.386;2023-03-12T04:45:41;94969.84;;;2.41;71.79
13414;BME280;6778;48.136;11.386;2023-03-12T04:48:11;94967.78;;;2.36;72.04
13414;BME280;6778;48.136;11.386;2023-03-12T04:50:44;94963.47;;;2.29;72.74
13414;BME280;6778;48.136;11.386;2023-03-12T04:53:15;94961.38;;;2.32;72.58
13414;BME280;6778;48.136;11.386;2023-03-12T04:55:47;94956.38;;;2.31;73.29
13414;BME280;6778;48.136;11.386;2023-03-12T04:58:20;94953.16;;;2.29;73.37
13414;BME280;6778;48.136;11.386;2023-03-12T05:00:51;94952.16;;;2.30;73.65
13414;BME280;6778;48.136;11.386;2023-03-12T05:03:21;94957.09;;;2.39;73.61
13414;BME280;6778;48.136;11.386;2023-03-12T05:05:51;94945.78;;;2.40;74.15
13414;BME280;6778;48.136;11.386;2023-03-12T05:08:21;94947.56;;;2.40;74.54
13414;BME280;6778;48.136;11.386;2023-03-12T05:10:51;94948.00;;;2.43;74.39
13414;BME280;6778;48.136;11.386;2023-03-12T05:13:26;94948.38;;;2.40;74.60
13414;BME280;6778;48.136;11.386;2023-03-12T05:15:56;94939.31;;;2.44;74.86
13414;BME280;6778;48.136;11.386;2023-03-12T05:18:27;94934.22;;;2.51;74.80
13414;BME280;6778;48.136;11.386;2023-03-12T05:20:59;94935.72;;;2.45;75.06
13414;BME280;6778;48.136;11.386;2023-03-12T05:23:32;94944.16;;;2.25;76.38
13414;BME280;6778;48.136;11.386;2023-03-12T05:26:05;94945.94;;;2.24;76.99
13414;BME280;6778;48.136;11.386;2023-03-12T05:28:38;94955.09;;;2.27;76.99
13414;BME280;6778;48.136;11.386;2023-03-12T05:31:10;94961.09;;;2.42;76.63
13414;BME280;6778;48.136;11.386;2023-03-12T05:33:40;94948.66;;;2.45;76.44
13414;BME280;6778;48.136;11.386;2023-03-12T05:36:12;94949.19;;;2.56;76.11
13414;BME280;6778;48.136;11.386;2023-03-12T05:38:45;94958.72;;;2.55;76.02
13414;BME280;6778;48.136;11.386;2023-03-12T05:41:19;94959.63;;;2.62;75.73
13414;BME280;6778;48.136;11.386;2023-03-12T05:43:56;94961.59;;;2.60;75.97
13414;BME280;6778;48.136;11.386;2023-03-12T05:46:28;94962.88;;;2.64;75.87
13414;BME280;6778;48.136;11.386;2023-03-12T05:48:59;94967.28;;;2.56;76.54
13414;BME280;6778;48.136;11.386;2023-03-12T05:51:31;94963.13;;;2.69;75.90
13414;BME280;6778;48.136;11.386;2023-03-12T05:54:01;94968.28;;;2.69;76.20
13414;BME280;6778;48.136;11.386;2023-03-12T05:56:31;94965.38;;;2.72;76.17
13414;BME280;6778;48.136;11.386;2023-03-12T05:59:05;94969.66;;;2.80;75.80
13414;BME280;6778;48.136;11.386;2023-03-12T06:01:39;94968.94;;;2.86;75.68
13414;BME280;6778;48.136;11.386;2023-03-12T06:04:10;94976.53;;;2.88;75.72
13414;BME280;6778;48.136;11.386;2023-03-12T06:06:41;94964.66;;;2.93;75.61
13414;BME280;6778;48.136;11.386;2023-03-12T06:09:11;94959.41;;;3.01;75.55
13414;BME280;6778;48.136;11.386;2023-03-12T06:11:41;94956.34;;;2.98;76.08
13414;BME280;6778;48.136;11.386;2023-03-12T06:14:14;94953.06;;;2.89;76.46
13414;BME280;6778;48.136;11.386;2023-03-12T06:16:45;94943.78;;;2.95;76.28
13414;BME280;6778;48.136;11.386;2023-03-12T06:19:15;94931.38;;;2.90;76.79
13414;BME280;6778;48.136;11.386;2023-03-12T06:21:47;94943.16;;;3.08;75.80
13414;BME280;6778;48.136;11.386;2023-03-12T06:24:18;94945.03;;;3.14;75.62
13414;BME280;6778;48.136;11.386;2023-03-12T06:26:57;94949.50;;;3.20;75.48
13414;BME280;6778;48.136;11.386;2023-03-12T06:29:30;94950.72;;;3.39;75.24
13414;BME280;6778;48.136;11.386;2023-03-12T06:32:00;94957.22;;;3.49;75.45
13414;BME280;6778;48.136;11.386;2023-03-12T06:34:31;94950.31;;;3.56;75.40
13414;BME280;6778;48.136;11.386;2023-03-12T06:37:01;94959.94;;;3.63;75.55
13414;BME280;6778;48.136;11.386;2023-03-12T06:39:31;94962.81;;;3.68;75.72
13414;BME280;6778;48.136;11.386;2023-03-12T06:42:01;94962.63;;;3.69;76.36
13414;BME280;6778;48.136;11.386;2023-03-12T06:44:34;94967.69;;;3.77;76.51
13414;BME280;6778;48.136;11.386;2023-03-12T06:47:04;94965.53;;;3.81;77.40
13414;BME280;6778;48.136;11.386;2023-03-12T06:49:35;94958.44;;;3.90;77.58
13414;BME280;6778;48.136;11.386;2023-03-12T06:52:05;94966.97;;;4.05;77.32
13414;BME280;6778;48.136;11.386;2023-03-12T06:54:35;94981.09;;;4.02;77.75
13414;BME280;6778;48.136;11.386;2023-03-12T06:57:05;94973.50;;;4.01;78.55
13414;BME280;6778;48.136;11.386;2023-03-12T06:59:38;94973.31;;;4.24;77.68
13414;BME280;6778;48.136;11.386;2023-03-12T07:02:09;94976.84;;;4.16;78.56
13414;BME280;6778;48.136;11.386;2023-03-12T07:04:39;94975.66;;;4.19;79.25
13414;BME280;6778;48.136;11.386;2023-03-12T07:07:09;94973.50;;;4.22;79.75
13414;BME280;6778;48.136;11.386;2023-03-12T07:09:40;94982.09;;;4.23;80.06
13414;BME280;6778;48.136;11.386;2023-03-12T07:12:10;94987.72;;;4.48;80.30
13414;BME280;6778;48.136;11.386;2023-03-12T07:14:42;94993.81;;;4.61;79.48
13414;BME280;6778;48.136;11.386;2023-03-12T07:17:13;94975.31;;;4.71;79.39
13414;BME280;6778;48.136;11.386;2023-03-12T07:19:43;94973.81;;;4.83;79.68
13414;BME280;6778;48.136;11.386;2023-03-12T07:22:15;94976.25;;;4.91;79.32
13414;BME280;6778;48.136;11.386;2023-03-12T07:24:45;94972.69;;;4.99;78.52
13414;BME280;6778;48.136;11.386;2023-03-12T07:27:17;94975.94;;;5.08;78.24
13414;BME280;6778;48.136;11.386;2023-03-12T07:29:50;94972.53;;;5.07;78.28
13414;BME280;6778;48.136;11.386;2023-03-12T07:32:20;94983.84;;;5.28;77.75
13414;BME280;6778;48.136;11.386;2023-03-12T07:34:50;94980.31;;;5.35;77.63
13414;BME280;6778;48.136;11.386;2023-03-12T07:37:20;94981.97;;;5.50;77.36
13414;BME280;6778;48.136;11.386;2023-03-12T07:39:50;94966.56;;;5.48;77.05
13414;BME280;6778;48.136;11.386;2023-03-12T07:42:21;94963.78;;;5.50;77.07
13414;BME280;6778;48.136;11.386;2023-03-12T07:44:54;94967.03;;;5.65;76.65
13414;BME280;6778;48.136;11.386;2023-03-12T07:47:24;94970.69;;;5.77;76.84
13414;BME280;6778;48.136;11.386;2023-03-12T07:49:54;94966.72;;;5.88;77.18
13414;BME280;6778;48.136;11.386;2023-03-12T07:52:25;94969.44;;;5.66;79.02
13414;BME280;6778;48.136;11.386;2023-03-12T07:54:55;94974.31;;;5.83;77.51
13414;BME280;6778;48.136;11.386;2023-03-12T07:57:25;94976.50;;;5.86;77.94
13414;BME280;6778;48.136;11.386;2023-03-12T07:59:58;94984.78;;;5.55;79.84
13414;BME280;6778;48.136;11.386;2023-03-12T08:02:38;94986.53;;;5.06;82.74
13414;BME280;6778;48.136;11.386;2023-03-12T08:05:08;94996.03;;;5.27;82.13
13414;BME280;6778;48.136;11.386;2023-03-12T08:07:39;94993.66;;;5.32;81.65
13414;BME280;6778;48.136;11.386;2023-03-12T08:10:10;94999.09;;;5.37;81.68
13414;BME280;6778;48.136;11.386;2023-03-12T08:12:40;94997.66;;;5.35;81.43
13414;BME280;6778;48.136;11.386;2023-03-12T08:15:13;94997.06;;;5.33;81.79
13414;BME280;6778;48.136;11.386;2023-03-12T08:17:44;94991.66;;;5.34;81.67
13414;BME280;6778;48.136;11.386;2023-03-12T08:20:15;94988.94;;;5.42;82.08
13414;BME280;6778;48.136;11.386;2023-03-12T08:22:45;94994.22;;;5.28;83.81
13414;BME280;6778;48.136;11.386;2023-03-12T08:25:15;95000.25;;;5.00;83.85
13414;BME280;6778;48.136;11.386;2023-03-12T08:27:47;94999.94;;;5.44;82.98
13414;BME280;6778;48.136;11.386;2023-03-12T08:30:20;95007.22;;;6.10;79.63
13414;BME280;6778;48.136;11.386;2023-03-12T08:32:50;95003.22;;;6.21;79.71
13414;BME280;6778;48.136;11.386;2023-03-12T08:35:20;95006.66;;;6.35;78.48
13414;BME280;6778;48.136;11.386;2023-03-12T08:37:50;95006.63;;;5.67;81.23
13414;BME280;6778;48.136;11.386;2023-03-12T08:40:24;95014.59;;;6.13;80.98
13414;BME280;6778;48.136;11.386;2023-03-12T08:42:54;95020.75;;;5.92;80.63
13414;BME280;6778;48.136;11.386;2023-03-12T08:45:26;95014.41;;;6.21;80.68
13414;BME280;6778;48.136;11.386;2023-03-12T08:47:57;95024.31;;;5.43;83.41
13414;BME280;6778;48.136;11.386;2023-03-12T08:50:27;95034.94;;;4.92;86.26
13414;BME280;6778;48.136;11.386;2023-03-12T08:52:58;95035.25;;;4.55;88.56
13414;BME280;6778;48.136;11.386;2023-03-12T08:55:30;95024.81;;;4.98;89.35
13414;BME280;6778;48.136;11.386;2023-03-12T08:58:01;95025.28;;;5.42;87.23
13414;BME280;6778;48.136;11.386;2023-03-12T09:00:33;95030.03;;;4.76;88.65
13414;BME280;6778;48.136;11.386;2023-03-12T09:03:03;95024.75;;;5.19;88.23
13414;BME280;6778;48.136;11.386;2023-03-12T09:05:33;95035.47;;;4.81;89.57
13414;BME280;6778;48.136;11.386;2023-03-12T09:08:04;95028.53;;;4.67;90.18
13414;BME280;6778;48.136;11.386;2023-03-12T09:10:34;95031.13;;;4.67;90.35
13414;BME280;6778;48.136;11.386;2023-03-12T09:13:06;95029.13;;;4.62;90.39
13414;BME280;6778;48.136;11.386;2023-03-12T09:15:39;95028.47;;;4.60;90.84
13414;BME280;6778;48.136;11.386;2023-03-12T09:18:09;95028.88;;;4.57;90.37
13414;BME280;6778;48.136;11.386;2023-03-12T09:20:41;95040.25;;;4.35;91.71
13414;BME280;6778;48.136;11.386;2023-03-12T09:23:11;95039.78;;;4.53;91.04
13414;BME280;6778;48.136;11.386;2023-03-12T09:25:44;95037.31;;;4.23;93.59
13414;BME280;6778;48.136;11.386;2023-03-12T09:28:14;95040.06;;;4.36;93.10
13414;BME280;6778;48.136;11.386;2023-03-12T09:30:47;95039.97;;;5.01;90.50
13414;BME280;6778;48.136;11.386;2023-03-12T09:33:17;95040.31;;;5.19;89.03
13414;BME280;6778;48.136;11.386;2023-03-12T09:35:55;95044.66;;;5.12;88.17
13414;BME280;6778;48.136;11.386;2023-03-12T09:38:27;95047.31;;;4.90;88.72
13414;BME280;6778;48.136;11.386;2023-03-12T09:40:58;95049.66;;;5.13;87.27
13414;BME280;6778;48.136;11.386;2023-03-12T09:43:35;95048.41;;;5.03;87.02
13414;BME280;6778;48.136;11.386;2023-03-12T09:46:16;95047.41;;;5.04;87.43
13414;BME280;6778;48.136;11.386;2023-03-12T09:48:52;95050.97;;;4.75;88.59
13414;BME280;6778;48.136;11.386;2023-03-12T09:51:32;95051.59;;;4.34;88.63
13414;BME280;6778;48.136;11.386;2023-03-12T09:54:07;95040.47;;;4.83;88.58
13414;BME280;6778;48.136;11.386;2023-03-12T09:56:46;95041.69;;;4.87;88.25
13414;BME280;6778;48.136;11.386;2023-03-12T09:59:16;95035.19;;;4.98;88.99
13414;BME280;6778;48.136;11.386;2023-03-12T10:01:54;95042.97;;;4.27;88.39
13414;BME280;6778;48.136;11.386;2023-03-12T10:04:37;95037.66;;;3.99;91.25
13414;BME280;6778;48.136;11.386;2023-03-12T10:07:33;95041.97;;;3.92;91.07
13414;BME280;6778;48.136;11.386;2023-03-12T10:10:21;95046.75;;;4.09;91.96
13414;BME280;6778;48.136;11.386;2023-03-12T10:13:13;95047.28;;;4.05;91.55
13414;BME280;6778;48.136;11.386;2023-03-12T10:15:55;95050.28;;;3.72;93.37
13414;BME280;6778;48.136;11.386;2023-03-12T10:18:53;95051.25;;;3.86;94.08
13414;BME280;6778;48.136;11.386;2023-03-12T10:21:34;95059.16;;;3.63;94.65
13414;BME280;6778;48.136;11.386;2023-03-12T10:24:18;95054.41;;;3.81;94.93
13414;BME280;6778;48.136;11.386;2023-03-12T10:26:57;95050.56;;;3.77;94.17
13414;BME280;6778;48.136;11.386;2023-03-12T10:29:29;95050.09;;;3.89;94.23
13414;BME280;6778;48.136;11.386;2023-03-12T10:32:06;95045.47;;;4.20;94.07
13414;BME280;6778;48.136;11.386;2023-03-12T10:34:48;95049.94;;;4.11;93.77
13414;BME280;6778;48.136;11.386;2023-03-12T10:37:23;95050.84;;;4.40;93.31
13414;BME280;6778;48.136;11.386;2023-03-12T10:39:55;95055.81;;;3.84;93.64
13414;BME280;6778;48.136;11.386;2023-03-12T10:42:28;95044.34;;;4.08;94.56
13414;BME280;6778;48.136;11.386;2023-03-12T10:45:09;95056.50;;;4.07;94.28
13414;BME280;6778;48.136;11.386;2023-03-12T10:47:49;95055.88;;;4.42;93.88
13414;BME280;6778;48.136;11.386;2023-03-12T10:50:28;95053.00;;;4.15;94.12
13414;BME280;6778;48.136;11.386;2023-03-12T10:53:20;95051.84;;;4.03;95.35
13414;BME280;6778;48.136;11.386;2023-03-12T10:56:01;95055.34;;;4.53;95.01
13414;BME280;6778;48.136;11.386;2023-03-12T10:58:36;95045.97;;;4.30;94.91
13414;BME280;6778;48.136;11.386;2023-03-12T11:01:17;95047.16;;;4.28;95.75
13414;BME280;6778;48.136;11.386;2023-03-12T11:03:48;95041.78;;;4.51;95.26
13414;BME280;6778;48.136;11.386;2023-03-12T11:06:24;95039.13;;;4.44;95.29
13414;BME280;6778;48.136;11.386;2023-03-12T11:09:04;95038.75;;;4.69;95.12
13414;BME280;6778;48.136;11.386;2023-03-12T11:11:44;95046.56;;;4.47;94.88
13414;BME280;6778;48.136;11.386;2023-03-12T11:14:16;95032.50;;;4.84;95.66
13414;BME280;6778;48.136;11.386;2023-03-12T11:16:49;95033.72;;;4.67;94.40
13414;BME280;6778;48.136;11.386;2023-03-12T11:19:27;95033.03;;;4.80;94.30
13414;BME280;6778;48.136;11.386;2023-03-12T11:22:05;95032.94;;;5.51;91.96
13414;BME280;6778;48.136;11.386;2023-03-12T11:24:54;95037.84;;;5.80;90.51
13414;BME280;6778;48.136;11.386;2023-03-12T11:27:39;95023.78;;;5.61;90.62
13414;BME280;6778;48.136;11.386;2023-03-12T11:30:13;95033.09;;;5.84;90.71
13414;BME280;6778;48.136;11.386;2023-03-12T11:32:46;95029.69;;;5.83;91.03
13414;BME280;6778;48.136;11.386;2023-03-12T11:35:28;95023.75;;;6.02;91.25
13414;BME280;6778;48.136;11.386;2023-03-12T11:38:15;95022.81;;;6.17;90.43
13414;BME280;6778;48.136;11.386;2023-03-12T11:40:58;95025.41;;;5.62;92.41
13414;BME280;6778;48.136;11.386;2023-03-12T11:43:45;95013.41;;;5.68;93.80
13414;BME280;6778;48.136;11.386;2023-03-12T11:46:31;95026.84;;;5.78;94.32
13414;BME280;6778;48.136;11.386;2023-03-12T11:49:16;95010.69;;;6.44;91.75
13414;BME280;6778;48.136;11.386;2023-03-12T11:51:56;95014.47;;;6.41;92.49
13414;BME280;6778;48.136;11.386;2023-03-12T11:54:44;95009.50;;;6.73;92.00
13414;BME280;6778;48.136;11.386;2023-03-12T11:57:30;95013.50;;;6.82;91.43
13414;BME280;6778;48.136;11.386;2023-03-12T12:00:13;95003.50;;;6.86;91.42
13414;BME280;6778;48.136;11.386;2023-03-12T12:03:19;95002.06;;;6.96;92.04
13414;BME280;6778;48.136;11.386;2023-03-12T12:06:02;95008.25;;;7.15;91.07
13414;BME280;6778;48.136;11.386;2023-03-12T12:08:55;95005.84;;;7.27;89.44
13414;BME280;6778;48.136;11.386;2023-03-12T12:11:42;95013.88;;;7.19;90.69
13414;BME280;6778;48.136;11.386;2023-03-12T12:14:25;95012.47;;;7.09;92.47
13414;BME280;6778;48.136;11.386;2023-03-12T12:17:12;95012.69;;;7.08;93.26
13414;BME280;6778;48.136;11.386;2023-03-12T12:19:59;95010.28;;;7.06;93.55
13414;BME280;6778;48.136;11.386;2023-03-12T12:22:47;95005.09;;;6.93;94.13
13414;BME280;6778;48.136;11.386;2023-03-12T12:25:33;94999.25;;;7.04;94.22
13414;BME280;6778;48.136;11.386;2023-03-12T12:28:29;95000.06;;;7.11;94.22
13414;BME280;6778;48.136;11.386;2023-03-12T12:31:13;95004.44;;;7.18;93.04
13414;BME280;6778;48.136;11.386;2023-03-12T12:36:47;95004.06;;;7.21;94.30
13414;BME280;6778;48.136;11.386;2023-03-12T12:39:28;94997.59;;;7.36;94.44
13414;BME280;6778;48.136;11.386;2023-03-12T12:42:05;94997.34;;;7.51;93.61
13414;BME280;6778;48.136;11.386;2023-03-12T12:44:43;94998.72;;;7.67;92.80
13414;BME280;6778;48.136;11.386;2023-03-12T12:47:21;94996.88;;;7.74;92.97
13414;BME280;6778;48.136;11.386;2023-03-12T12:49:58;95000.91;;;7.70;93.55
13414;BME280;6778;48.136;11.386;2023-03-12T12:52:29;94998.69;;;7.74;93.36
13414;BME280;6778;48.136;11.386;2023-03-12T12:55:09;94997.25;;;7.78;94.12
13414;BME280;6778;48.136;11.386;2023-03-12T12:57:45;94994.84;;;7.83;93.55
13414;BME280;6778;48.136;11.386;2023-03-12T13:00:38;94987.94;;;8.02;93.76
13414;BME280;6778;48.136;11.386;2023-03-12T13:03:13;94995.00;;;8.26;92.46
13414;BME280;6778;48.136;11.386;2023-03-12T13:06:03;94981.19;;;8.57;91.23
13414;BME280;6778;48.136;11.386;2023-03-12T13:11:28;94977.59;;;8.83;89.39
13414;BME280;6778;48.136;11.386;2023-03-12T13:17:19;94983.06;;;9.00;88.12
13414;BME280;6778;48.136;11.386;2023-03-12T13:19:53;94983.38;;;9.10;87.98
13414;BME280;6778;48.136;11.386;2023-03-12T13:22:43;94985.38;;;9.15;88.55
13414;BME280;6778;48.136;11.386;2023-03-12T13:25:39;94991.38;;;9.15;87.09
13414;BME280;6778;48.136;11.386;2023-03-12T13:28:36;94982.63;;;9.46;86.97
13414;BME280;6778;48.136;11.386;2023-03-12T13:31:33;94987.25;;;9.81;84.88
13414;BME280;6778;48.136;11.386;2023-03-12T13:34:31;94989.53;;;9.77;85.10
13414;BME280;6778;48.136;11.386;2023-03-12T13:46:52;95002.72;;;10.01;84.55
13414;BME280;6778;48.136;11.386;2023-03-12T13:49:36;95003.81;;;9.93;84.96
13414;BME280;6778;48.136;11.386;2023-03-12T13:52:19;94999.53;;;9.80;85.33
13414;BME280;6778;48.136;11.386;2023-03-12T13:54:59;95011.31;;;9.71;85.80
13414;BME280;6778;48.136;11.386;2023-03-12T13:57:36;95006.56;;;9.62;85.94
13414;BME280;6778;48.136;11.386;2023-03-12T14:00:16;95000.69;;;9.66;85.69
13414;BME280;6778;48.136;11.386;2023-03-12T14:02:52;94995.41;;;9.73;85.46
13414;BME280;6778;48.136;11.386;2023-03-12T14:05:27;94993.19;;;9.88;84.73
13414;BME280;6778;48.136;11.386;2023-03-12T14:08:17;94997.94;;;9.98;83.88